sensor_id;sensor_type;location;lat;lon;timestamp;P1;durP1;ratioP1;P2;durP2;ratioP2
13847;SDS011;6994;49.752;6.094;2023-05-13T00:02:16;4.37;;;3.85;;
13847;SDS011;6994;49.752;6.094;2023-05-13T00:04:43;4.55;;;4.15;;
13847;SDS011;6994;49.752;6.094;2023-05-13T00:07:11;6.07;;;3.05;;
13847;SDS011;6994;49.752;6.094;2023-05-13T00:09:38;4.75;;;3.62;;
13847;SDS011;6994;49.752;6.094;2023-05-13T00:12:05;4.18;;;3.78;;
13847;SDS011;6994;49.752;6.094;2023-05-13T00:14:32;4.25;;;3.60;;
13847;SDS011;6994;49.752;6.094;2023-05-13T00:16:59;3.83;;;3.53;;
13847;SDS011;6994;49.752;6.094;2023-05-13T00:19:27;8.65;;;4.35;;
13847;SDS011;6994;49.752;6.094;2023-05-13T00:21:54;8.82;;;4.20;;
13847;SDS011;6994;49.752;6.094;2023-05-13T00:24:22;3.83;;;3.47;;
13847;SDS011;6994;49.752;6.094;2023-05-13T00:26:49;4.20;;;3.80;;
13847;SDS011;6994;49.752;6.094;2023-05-13T00:29:16;4.00;;;3.70;;
13847;SDS011;6994;49.752;6.094;2023-05-13T00:31:44;4.60;;;3.58;;
13847;SDS011;6994;49.752;6.094;2023-05-13T00:34:12;4.28;;;3.70;;
13847;SDS011;6994;49.752;6.094;2023-05-13T00:36:39;5.00;;;3.40;;
13847;SDS011;6994;49.752;6.094;2023-05-13T00:39:07;3.67;;;3.37;;
13847;SDS011;6994;49.752;6.094;2023-05-13T00:41:34;4.57;;;4.15;;
13847;SDS011;6994;49.752;6.094;2023-05-13T00:44:01;3.90;;;3.50;;
13847;SDS011;6994;49.752;6.094;2023-05-13T00:46:31;6.12;;;4.43;;
13847;SDS011;6994;49.752;6.094;2023-05-13T00:49:01;5.25;;;3.70;;
13847;SDS011;6994;49.752;6.094;2023-05-13T00:51:28;4.22;;;3.90;;
13847;SDS011;6994;49.752;6.094;2023-05-13T00:53:56;4.12;;;3.72;;
13847;SDS011;6994;49.752;6.094;2023-05-13T00:56:24;6.18;;;3.25;;
13847;SDS011;6994;49.752;6.094;2023-05-13T00:58:50;4.25;;;3.87;;
13847;SDS011;6994;49.752;6.094;2023-05-13T01:01:28;4.90;;;4.40;;
13847;SDS011;6994;49.752;6.094;2023-05-13T01:06:41;6.12;;;4.82;;
13847;SDS011;6994;49.752;6.094;2023-05-13T01:09:09;5.70;;;4.90;;
13847;SDS011;6994;49.752;6.094;2023-05-13T01:11:36;8.57;;;6.25;;
13847;SDS011;6994;49.752;6.094;2023-05-13T01:14:13;6.95;;;6.25;;
13847;SDS011;6994;49.752;6.094;2023-05-13T01:16:43;6.12;;;5.05;;
13847;SDS011;6994;49.752;6.094;2023-05-13T01:19:17;7.53;;;6.82;;
13847;SDS011;6994;49.752;6.094;2023-05-13T01:21:42;6.25;;;5.60;;
13847;SDS011;6994;49.752;6.094;2023-05-13T01:24:09;6.37;;;5.78;;
13847;SDS011;6994;49.752;6.094;2023-05-13T01:26:36;5.03;;;4.53;;
13847;SDS011;6994;49.752;6.094;2023-05-13T01:29:03;7.82;;;6.82;;
13847;SDS011;6994;49.752;6.094;2023-05-13T01:31:31;6.25;;;4.87;;
13847;SDS011;6994;49.752;6.094;2023-05-13T01:33:59;5.55;;;4.20;;
13847;SDS011;6994;49.752;6.094;2023-05-13T01:36:26;5.43;;;4.93;;
13847;SDS011;6994;49.752;6.094;2023-05-13T01:38:54;6.62;;;4.35;;
13847;SDS011;6994;49.752;6.094;2023-05-13T01:41:21;5.75;;;4.40;;
13847;SDS011;6994;49.752;6.094;2023-05-13T01:43:49;7.97;;;5.70;;
13847;SDS011;6994;49.752;6.094;2023-05-13T01:46:16;5.10;;;3.95;;
13847;SDS011;6994;49.752;6.094;2023-05-13T01:48:43;7.68;;;4.45;;
13847;SDS011;6994;49.752;6.094;2023-05-13T01:51:10;5.45;;;4.50;;
13847;SDS011;6994;49.752;6.094;2023-05-13T01:53:38;6.32;;;4.10;;
13847;SDS011;6994;49.752;6.094;2023-05-13T01:56:07;5.18;;;4.55;;
13847;SDS011;6994;49.752;6.094;2023-05-13T01:58:33;7.10;;;6.32;;
13847;SDS011;6994;49.752;6.094;2023-05-13T02:01:00;6.32;;;5.70;;
13847;SDS011;6994;49.752;6.094;2023-05-13T02:03:27;5.90;;;4.97;;
13847;SDS011;6994;49.752;6.094;2023-05-13T02:05:54;5.90;;;4.43;;
13847;SDS011;6994;49.752;6.094;2023-05-13T02:08:22;7.05;;;5.03;;
13847;SDS011;6994;49.752;6.094;2023-05-13T02:10:55;6.47;;;5.87;;
13847;SDS011;6994;49.752;6.094;2023-05-13T02:13:22;6.70;;;6.10;;
13847;SDS011;6994;49.752;6.094;2023-05-13T02:15:49;6.43;;;5.72;;
13847;SDS011;6994;49.752;6.094;2023-05-13T02:18:16;8.82;;;6.07;;
13847;SDS011;6994;49.752;6.094;2023-05-13T02:20:44;9.65;;;6.65;;
13847;SDS011;6994;49.752;6.094;2023-05-13T02:23:11;7.85;;;6.15;;
13847;SDS011;6994;49.752;6.094;2023-05-13T02:25:38;8.27;;;5.85;;
13847;SDS011;6994;49.752;6.094;2023-05-13T02:28:05;8.13;;;6.12;;
13847;SDS011;6994;49.752;6.094;2023-05-13T02:30:32;6.55;;;5.75;;
13847;SDS011;6994;49.752;6.094;2023-05-13T02:32:59;6.80;;;5.97;;
13847;SDS011;6994;49.752;6.094;2023-05-13T02:35:27;6.28;;;5.18;;
13847;SDS011;6994;49.752;6.094;2023-05-13T02:37:54;6.87;;;5.45;;
13847;SDS011;6994;49.752;6.094;2023-05-13T02:40:21;6.35;;;5.15;;
13847;SDS011;6994;49.752;6.094;2023-05-13T02:42:49;5.50;;;5.00;;
13847;SDS011;6994;49.752;6.094;2023-05-13T02:45:15;6.22;;;5.10;;
13847;SDS011;6994;49.752;6.094;2023-05-13T02:47:43;7.97;;;5.82;;
13847;SDS011;6994;49.752;6.094;2023-05-13T02:50:10;8.73;;;5.95;;
13847;SDS011;6994;49.752;6.094;2023-05-13T02:52:37;8.27;;;6.20;;
13847;SDS011;6994;49.752;6.094;2023-05-13T02:55:07;8.07;;;6.87;;
13847;SDS011;6994;49.752;6.094;2023-05-13T02:57:34;9.38;;;6.68;;
13847;SDS011;6994;49.752;6.094;2023-05-13T03:00:02;8.27;;;7.43;;
13847;SDS011;6994;49.752;6.094;2023-05-13T03:02:31;10.57;;;8.90;;
13847;SDS011;6994;49.752;6.094;2023-05-13T03:04:58;8.93;;;7.35;;
13847;SDS011;6994;49.752;6.094;2023-05-13T03:07:26;7.97;;;7.18;;
13847;SDS011;6994;49.752;6.094;2023-05-13T03:09:54;7.47;;;6.70;;
13847;SDS011;6994;49.752;6.094;2023-05-13T03:12:22;9.85;;;7.65;;
13847;SDS011;6994;49.752;6.094;2023-05-13T03:14:49;11.57;;;7.10;;
13847;SDS011;6994;49.752;6.094;2023-05-13T03:17:16;12.07;;;7.93;;
13847;SDS011;6994;49.752;6.094;2023-05-13T03:19:43;9.43;;;7.05;;
13847;SDS011;6994;49.752;6.094;2023-05-13T03:22:10;10.98;;;6.95;;
13847;SDS011;6994;49.752;6.094;2023-05-13T03:24:38;8.50;;;7.40;;
13847;SDS011;6994;49.752;6.094;2023-05-13T03:27:05;12.40;;;7.18;;
13847;SDS011;6994;49.752;6.094;2023-05-13T03:29:33;8.18;;;7.32;;
13847;SDS011;6994;49.752;6.094;2023-05-13T03:32:01;11.07;;;7.68;;
13847;SDS011;6994;49.752;6.094;2023-05-13T03:34:28;11.32;;;6.97;;
13847;SDS011;6994;49.752;6.094;2023-05-13T03:36:56;15.10;;;7.78;;
13847;SDS011;6994;49.752;6.094;2023-05-13T03:39:24;6.80;;;6.20;;
13847;SDS011;6994;49.752;6.094;2023-05-13T03:41:52;7.15;;;6.40;;
13847;SDS011;6994;49.752;6.094;2023-05-13T03:44:20;9.10;;;7.00;;
13847;SDS011;6994;49.752;6.094;2023-05-13T03:46:47;7.70;;;5.97;;
13847;SDS011;6994;49.752;6.094;2023-05-13T03:49:14;7.12;;;5.65;;
13847;SDS011;6994;49.752;6.094;2023-05-13T03:51:41;7.78;;;6.15;;
13847;SDS011;6994;49.752;6.094;2023-05-13T03:54:09;6.72;;;5.47;;
13847;SDS011;6994;49.752;6.094;2023-05-13T03:56:36;8.68;;;6.35;;
13847;SDS011;6994;49.752;6.094;2023-05-13T03:59:03;6.85;;;6.03;;
13847;SDS011;6994;49.752;6.094;2023-05-13T04:01:30;9.57;;;5.45;;
13847;SDS011;6994;49.752;6.094;2023-05-13T04:03:57;7.50;;;5.70;;
13847;SDS011;6994;49.752;6.094;2023-05-13T04:06:25;8.85;;;5.32;;
13847;SDS011;6994;49.752;6.094;2023-05-13T04:08:52;9.07;;;7.78;;
13847;SDS011;6994;49.752;6.094;2023-05-13T04:11:19;7.35;;;6.65;;
13847;SDS011;6994;49.752;6.094;2023-05-13T04:13:46;7.15;;;5.70;;
13847;SDS011;6994;49.752;6.094;2023-05-13T04:16:13;8.48;;;5.90;;
13847;SDS011;6994;49.752;6.094;2023-05-13T04:18:41;6.45;;;5.25;;
13847;SDS011;6994;49.752;6.094;2023-05-13T04:21:08;6.57;;;5.65;;
13847;SDS011;6994;49.752;6.094;2023-05-13T04:23:35;7.47;;;5.55;;
13847;SDS011;6994;49.752;6.094;2023-05-13T04:26:02;7.00;;;5.30;;
13847;SDS011;6994;49.752;6.094;2023-05-13T04:28:29;7.50;;;5.45;;
13847;SDS011;6994;49.752;6.094;2023-05-13T04:30:57;7.03;;;5.50;;
13847;SDS011;6994;49.752;6.094;2023-05-13T04:33:24;6.55;;;5.82;;
13847;SDS011;6994;49.752;6.094;2023-05-13T04:35:51;6.22;;;5.62;;
13847;SDS011;6994;49.752;6.094;2023-05-13T04:38:18;8.63;;;7.25;;
13847;SDS011;6994;49.752;6.094;2023-05-13T04:40:45;8.27;;;5.97;;
13847;SDS011;6994;49.752;6.094;2023-05-13T04:43:13;8.02;;;7.15;;
13847;SDS011;6994;49.752;6.094;2023-05-13T04:45:40;6.80;;;6.10;;
13847;SDS011;6994;49.752;6.094;2023-05-13T04:48:07;9.38;;;7.55;;
13847;SDS011;6994;49.752;6.094;2023-05-13T04:50:35;7.75;;;5.90;;
13847;SDS011;6994;49.752;6.094;2023-05-13T04:53:01;10.20;;;8.05;;
13847;SDS011;6994;49.752;6.094;2023-05-13T04:55:29;8.07;;;6.72;;
13847;SDS011;6994;49.752;6.094;2023-05-13T04:57:56;8.55;;;7.55;;
13847;SDS011;6994;49.752;6.094;2023-05-13T05:00:23;5.70;;;5.20;;
13847;SDS011;6994;49.752;6.094;2023-05-13T05:02:50;7.90;;;6.95;;
13847;SDS011;6994;49.752;6.094;2023-05-13T05:05:17;6.43;;;5.43;;
13847;SDS011;6994;49.752;6.094;2023-05-13T05:07:45;10.70;;;7.12;;
13847;SDS011;6994;49.752;6.094;2023-05-13T05:10:12;7.78;;;6.05;;
13847;SDS011;6994;49.752;6.094;2023-05-13T05:12:39;7.43;;;6.60;;
13847;SDS011;6994;49.752;6.094;2023-05-13T05:15:06;6.93;;;6.10;;
13847;SDS011;6994;49.752;6.094;2023-05-13T05:17:33;6.22;;;5.62;;
13847;SDS011;6994;49.752;6.094;2023-05-13T05:20:01;6.22;;;5.62;;
13847;SDS011;6994;49.752;6.094;2023-05-13T05:22:28;6.90;;;5.35;;
13847;SDS011;6994;49.752;6.094;2023-05-13T05:24:55;5.60;;;5.07;;
13847;SDS011;6994;49.752;6.094;2023-05-13T05:27:22;5.53;;;5.03;;
13847;SDS011;6994;49.752;6.094;2023-05-13T05:29:49;6.85;;;6.25;;
13847;SDS011;6994;49.752;6.094;2023-05-13T05:32:17;6.25;;;5.68;;
13847;SDS011;6994;49.752;6.094;2023-05-13T05:34:44;4.93;;;4.50;;
13847;SDS011;6994;49.752;6.094;2023-05-13T05:37:11;9.00;;;5.05;;
13847;SDS011;6994;49.752;6.094;2023-05-13T05:39:38;5.25;;;4.47;;
13847;SDS011;6994;49.752;6.094;2023-05-13T05:42:06;5.35;;;4.85;;
13847;SDS011;6994;49.752;6.094;2023-05-13T05:44:33;5.57;;;4.75;;
13847;SDS011;6994;49.752;6.094;2023-05-13T05:47:00;5.85;;;5.20;;
13847;SDS011;6994;49.752;6.094;2023-05-13T05:49:28;8.90;;;6.10;;
13847;SDS011;6994;49.752;6.094;2023-05-13T05:51:55;5.93;;;5.30;;
13847;SDS011;6994;49.752;6.094;2023-05-13T05:54:22;5.18;;;4.68;;
13847;SDS011;6994;49.752;6.094;2023-05-13T05:56:49;6.80;;;6.20;;
13847;SDS011;6994;49.752;6.094;2023-05-13T05:59:17;7.45;;;5.75;;
13847;SDS011;6994;49.752;6.094;2023-05-13T06:01:44;5.62;;;5.12;;
13847;SDS011;6994;49.752;6.094;2023-05-13T06:04:11;6.65;;;5.43;;
13847;SDS011;6994;49.752;6.094;2023-05-13T06:06:38;5.57;;;5.03;;
13847;SDS011;6994;49.752;6.094;2023-05-13T06:09:05;7.00;;;6.30;;
13847;SDS011;6994;49.752;6.094;2023-05-13T06:14:10;7.65;;;6.95;;
13847;SDS011;6994;49.752;6.094;2023-05-13T06:16:38;6.97;;;6.37;;
13847;SDS011;6994;49.752;6.094;2023-05-13T06:19:06;7.47;;;6.78;;
13847;SDS011;6994;49.752;6.094;2023-05-13T06:21:33;7.60;;;6.32;;
13847;SDS011;6994;49.752;6.094;2023-05-13T06:24:00;6.45;;;5.80;;
13847;SDS011;6994;49.752;6.094;2023-05-13T06:26:27;5.53;;;5.07;;
13847;SDS011;6994;49.752;6.094;2023-05-13T06:28:54;4.97;;;4.57;;
13847;SDS011;6994;49.752;6.094;2023-05-13T06:31:22;5.10;;;4.60;;
13847;SDS011;6994;49.752;6.094;2023-05-13T06:33:49;6.78;;;4.80;;
13847;SDS011;6994;49.752;6.094;2023-05-13T06:36:16;4.75;;;4.35;;
13847;SDS011;6994;49.752;6.094;2023-05-13T06:38:43;5.18;;;4.68;;
13847;SDS011;6994;49.752;6.094;2023-05-13T06:41:10;4.72;;;4.25;;
13847;SDS011;6994;49.752;6.094;2023-05-13T06:43:38;4.78;;;4.37;;
13847;SDS011;6994;49.752;6.094;2023-05-13T06:46:06;5.15;;;4.65;;
13847;SDS011;6994;49.752;6.094;2023-05-13T06:48:33;5.25;;;4.53;;
13847;SDS011;6994;49.752;6.094;2023-05-13T06:51:00;5.10;;;4.32;;
13847;SDS011;6994;49.752;6.094;2023-05-13T06:53:27;4.50;;;4.10;;
13847;SDS011;6994;49.752;6.094;2023-05-13T06:56:08;4.70;;;4.32;;
13847;SDS011;6994;49.752;6.094;2023-05-13T06:58:35;4.87;;;4.47;;
13847;SDS011;6994;49.752;6.094;2023-05-13T07:01:02;3.37;;;3.17;;
13847;SDS011;6994;49.752;6.094;2023-05-13T07:03:29;4.43;;;3.78;;
13847;SDS011;6994;49.752;6.094;2023-05-13T07:05:56;4.37;;;3.97;;
13847;SDS011;6994;49.752;6.094;2023-05-13T07:08:24;4.82;;;3.95;;
13847;SDS011;6994;49.752;6.094;2023-05-13T07:10:52;4.60;;;4.12;;
13847;SDS011;6994;49.752;6.094;2023-05-13T07:13:20;4.07;;;3.67;;
13847;SDS011;6994;49.752;6.094;2023-05-13T07:15:47;7.28;;;4.03;;
13847;SDS011;6994;49.752;6.094;2023-05-13T07:18:15;4.65;;;4.35;;
13847;SDS011;6994;49.752;6.094;2023-05-13T07:20:42;5.90;;;5.03;;
13847;SDS011;6994;49.752;6.094;2023-05-13T07:23:09;6.07;;;5.43;;
13847;SDS011;6994;49.752;6.094;2023-05-13T07:25:36;5.40;;;4.35;;
13847;SDS011;6994;49.752;6.094;2023-05-13T07:28:03;6.45;;;5.85;;
13847;SDS011;6994;49.752;6.094;2023-05-13T07:30:31;5.62;;;5.12;;
13847;SDS011;6994;49.752;6.094;2023-05-13T07:32:58;6.05;;;5.47;;
13847;SDS011;6994;49.752;6.094;2023-05-13T07:35:25;4.93;;;4.45;;
13847;SDS011;6994;49.752;6.094;2023-05-13T07:37:52;5.15;;;4.75;;
13847;SDS011;6994;49.752;6.094;2023-05-13T07:40:20;5.35;;;4.85;;
13847;SDS011;6994;49.752;6.094;2023-05-13T07:42:48;4.00;;;3.58;;
13847;SDS011;6994;49.752;6.094;2023-05-13T07:45:16;5.10;;;4.62;;
13847;SDS011;6994;49.752;6.094;2023-05-13T07:47:44;5.90;;;3.72;;
13847;SDS011;6994;49.752;6.094;2023-05-13T07:50:11;4.75;;;4.32;;
13847;SDS011;6994;49.752;6.094;2023-05-13T07:52:39;6.12;;;5.20;;
13847;SDS011;6994;49.752;6.094;2023-05-13T07:55:06;4.95;;;3.87;;
13847;SDS011;6994;49.752;6.094;2023-05-13T07:57:33;4.03;;;3.62;;
13847;SDS011;6994;49.752;6.094;2023-05-13T08:00:00;3.20;;;2.90;;
13847;SDS011;6994;49.752;6.094;2023-05-13T08:02:28;3.00;;;2.75;;
13847;SDS011;6994;49.752;6.094;2023-05-13T08:04:56;3.25;;;3.03;;
13847;SDS011;6994;49.752;6.094;2023-05-13T08:07:24;3.03;;;2.83;;
13847;SDS011;6994;49.752;6.094;2023-05-13T08:09:51;2.72;;;2.53;;
13847;SDS011;6994;49.752;6.094;2023-05-13T08:12:19;3.97;;;3.53;;
13847;SDS011;6994;49.752;6.094;2023-05-13T08:14:46;4.35;;;2.97;;
13847;SDS011;6994;49.752;6.094;2023-05-13T08:17:13;4.55;;;3.30;;
13847;SDS011;6994;49.752;6.094;2023-05-13T08:19:40;4.75;;;3.62;;
13847;SDS011;6994;49.752;6.094;2023-05-13T08:22:07;2.95;;;2.75;;
13847;SDS011;6994;49.752;6.094;2023-05-13T08:24:35;3.30;;;2.60;;
13847;SDS011;6994;49.752;6.094;2023-05-13T08:27:02;3.25;;;2.80;;
13847;SDS011;6994;49.752;6.094;2023-05-13T08:29:29;3.05;;;2.78;;
13847;SDS011;6994;49.752;6.094;2023-05-13T08:31:57;2.85;;;2.65;;
13847;SDS011;6994;49.752;6.094;2023-05-13T08:34:25;3.03;;;2.83;;
13847;SDS011;6994;49.752;6.094;2023-05-13T08:36:52;2.78;;;2.58;;
13847;SDS011;6994;49.752;6.094;2023-05-13T08:39:19;3.03;;;2.45;;
13847;SDS011;6994;49.752;6.094;2023-05-13T08:41:47;2.50;;;2.33;;
13847;SDS011;6994;49.752;6.094;2023-05-13T08:44:14;2.10;;;1.95;;
13847;SDS011;6994;49.752;6.094;2023-05-13T08:46:43;3.10;;;2.20;;
13847;SDS011;6994;49.752;6.094;2023-05-13T08:49:08;4.53;;;2.20;;
13847;SDS011;6994;49.752;6.094;2023-05-13T08:51:35;2.22;;;2.03;;
13847;SDS011;6994;49.752;6.094;2023-05-13T08:54:03;1.95;;;1.83;;
13847;SDS011;6994;49.752;6.094;2023-05-13T08:56:30;1.90;;;1.80;;
13847;SDS011;6994;49.752;6.094;2023-05-13T08:58:58;3.15;;;2.15;;
13847;SDS011;6994;49.752;6.094;2023-05-13T09:01:26;3.33;;;2.45;;
13847;SDS011;6994;49.752;6.094;2023-05-13T09:03:56;2.08;;;1.90;;
13847;SDS011;6994;49.752;6.094;2023-05-13T09:06:21;4.07;;;1.45;;
13847;SDS011;6994;49.752;6.094;2023-05-13T09:08:48;2.35;;;2.15;;
13847;SDS011;6994;49.752;6.094;2023-05-13T09:11:15;1.80;;;1.70;;
13847;SDS011;6994;49.752;6.094;2023-05-13T09:13:43;1.98;;;1.83;;
13847;SDS011;6994;49.752;6.094;2023-05-13T09:16:10;2.25;;;1.90;;
13847;SDS011;6994;49.752;6.094;2023-05-13T09:18:37;4.75;;;2.00;;
13847;SDS011;6994;49.752;6.094;2023-05-13T09:21:23;1.90;;;1.80;;
13847;SDS011;6994;49.752;6.094;2023-05-13T09:24:05;1.83;;;1.73;;
13847;SDS011;6994;49.752;6.094;2023-05-13T09:26:32;1.62;;;1.52;;
13847;SDS011;6994;49.752;6.094;2023-05-13T09:29:16;1.90;;;1.80;;
13847;SDS011;6994;49.752;6.094;2023-05-13T09:31:42;2.35;;;2.17;;
13847;SDS011;6994;49.752;6.094;2023-05-13T09:34:09;1.92;;;1.70;;
13847;SDS011;6994;49.752;6.094;2023-05-13T09:36:37;1.92;;;1.80;;
13847;SDS011;6994;49.752;6.094;2023-05-13T09:39:05;1.67;;;1.58;;
13847;SDS011;6994;49.752;6.094;2023-05-13T09:41:32;2.10;;;1.90;;
13847;SDS011;6994;49.752;6.094;2023-05-13T09:44:02;2.00;;;1.90;;
13847;SDS011;6994;49.752;6.094;2023-05-13T09:46:29;2.95;;;2.15;;
13847;SDS011;6994;49.752;6.094;2023-05-13T09:48:56;2.90;;;1.92;;
13847;SDS011;6994;49.752;6.094;2023-05-13T09:51:27;2.47;;;2.12;;
13847;SDS011;6994;49.752;6.094;2023-05-13T09:53:53;1.85;;;1.75;;
13847;SDS011;6994;49.752;6.094;2023-05-13T09:56:21;2.40;;;2.20;;
13847;SDS011;6994;49.752;6.094;2023-05-13T09:58:51;3.00;;;2.22;;
13847;SDS011;6994;49.752;6.094;2023-05-13T10:01:18;2.67;;;2.20;;
13847;SDS011;6994;49.752;6.094;2023-05-13T10:03:46;2.30;;;2.10;;
13847;SDS011;6994;49.752;6.094;2023-05-13T10:06:17;2.75;;;2.50;;
13847;SDS011;6994;49.752;6.094;2023-05-13T10:08:44;2.83;;;2.40;;
13847;SDS011;6994;49.752;6.094;2023-05-13T10:11:11;2.05;;;1.85;;
13847;SDS011;6994;49.752;6.094;2023-05-13T10:13:38;1.92;;;1.70;;
13847;SDS011;6994;49.752;6.094;2023-05-13T10:16:06;2.00;;;1.80;;
13847;SDS011;6994;49.752;6.094;2023-05-13T10:18:33;3.50;;;1.80;;
13847;SDS011;6994;49.752;6.094;2023-05-13T10:21:00;2.05;;;1.80;;
13847;SDS011;6994;49.752;6.094;2023-05-13T10:23:27;3.22;;;2.50;;
13847;SDS011;6994;49.752;6.094;2023-05-13T10:25:57;2.40;;;2.20;;
13847;SDS011;6994;49.752;6.094;2023-05-13T10:28:22;2.80;;;2.47;;
13847;SDS011;6994;49.752;6.094;2023-05-13T10:30:49;2.35;;;2.25;;
13847;SDS011;6994;49.752;6.094;2023-05-13T10:33:19;2.65;;;2.40;;
13847;SDS011;6994;49.752;6.094;2023-05-13T10:36:05;1.80;;;1.70;;
13847;SDS011;6994;49.752;6.094;2023-05-13T10:38:18;2.28;;;1.80;;
13847;SDS011;6994;49.752;6.094;2023-05-13T10:40:50;2.85;;;2.50;;
13847;SDS011;6994;49.752;6.094;2023-05-13T10:43:33;2.28;;;2.08;;
13847;SDS011;6994;49.752;6.094;2023-05-13T10:45:59;4.75;;;2.35;;
13847;SDS011;6994;49.752;6.094;2023-05-13T10:48:30;1.70;;;1.60;;
13847;SDS011;6994;49.752;6.094;2023-05-13T10:50:54;2.75;;;2.03;;
13847;SDS011;6994;49.752;6.094;2023-05-13T10:53:22;2.50;;;1.92;;
13847;SDS011;6994;49.752;6.094;2023-05-13T10:55:52;2.55;;;1.73;;
13847;SDS011;6994;49.752;6.094;2023-05-13T10:58:18;2.65;;;1.80;;
13847;SDS011;6994;49.752;6.094;2023-05-13T11:00:45;2.25;;;1.60;;
13847;SDS011;6994;49.752;6.094;2023-05-13T11:03:13;1.58;;;1.48;;
13847;SDS011;6994;49.752;6.094;2023-05-13T11:05:41;3.45;;;1.95;;
13847;SDS011;6994;49.752;6.094;2023-05-13T11:08:07;1.73;;;1.52;;
13847;SDS011;6994;49.752;6.094;2023-05-13T11:10:34;1.73;;;1.52;;
13847;SDS011;6994;49.752;6.094;2023-05-13T11:13:07;2.42;;;1.50;;
13847;SDS011;6994;49.752;6.094;2023-05-13T11:15:44;4.18;;;1.50;;
13847;SDS011;6994;49.752;6.094;2023-05-13T11:18:13;1.75;;;1.65;;
13847;SDS011;6994;49.752;6.094;2023-05-13T11:20:43;2.47;;;1.45;;
13847;SDS011;6994;49.752;6.094;2023-05-13T11:23:08;2.97;;;1.33;;
13847;SDS011;6994;49.752;6.094;2023-05-13T11:25:36;1.65;;;1.55;;
13847;SDS011;6994;49.752;6.094;2023-05-13T11:28:03;4.53;;;1.42;;
13847;SDS011;6994;49.752;6.094;2023-05-13T11:30:30;1.80;;;1.70;;
13847;SDS011;6994;49.752;6.094;2023-05-13T11:32:57;2.37;;;1.40;;
13847;SDS011;6994;49.752;6.094;2023-05-13T11:35:25;1.95;;;1.80;;
13847;SDS011;6994;49.752;6.094;2023-05-13T11:37:55;1.77;;;1.57;;
13847;SDS011;6994;49.752;6.094;2023-05-13T11:40:23;1.80;;;1.70;;
13847;SDS011;6994;49.752;6.094;2023-05-13T11:42:50;2.37;;;1.62;;
13847;SDS011;6994;49.752;6.094;2023-05-13T11:45:18;1.90;;;1.80;;
13847;SDS011;6994;49.752;6.094;2023-05-13T11:47:45;1.65;;;1.55;;
13847;SDS011;6994;49.752;6.094;2023-05-13T11:50:18;2.87;;;1.75;;
13847;SDS011;6994;49.752;6.094;2023-05-13T11:52:50;2.62;;;2.15;;
13847;SDS011;6994;49.752;6.094;2023-05-13T11:55:12;2.30;;;1.80;;
13847;SDS011;6994;49.752;6.094;2023-05-13T11:57:39;1.90;;;1.80;;
13847;SDS011;6994;49.752;6.094;2023-05-13T12:00:07;2.25;;;1.73;;
13847;SDS011;6994;49.752;6.094;2023-05-13T12:02:35;2.03;;;1.80;;
13847;SDS011;6994;49.752;6.094;2023-05-13T12:05:10;2.12;;;1.67;;
13847;SDS011;6994;49.752;6.094;2023-05-13T12:07:35;2.05;;;1.70;;
13847;SDS011;6994;49.752;6.094;2023-05-13T12:10:02;2.70;;;1.58;;
13847;SDS011;6994;49.752;6.094;2023-05-13T12:12:29;1.83;;;1.70;;
13847;SDS011;6994;49.752;6.094;2023-05-13T12:15:00;1.60;;;1.50;;
13847;SDS011;6994;49.752;6.094;2023-05-13T12:17:26;1.90;;;1.73;;
13847;SDS011;6994;49.752;6.094;2023-05-13T12:20:03;1.80;;;1.70;;
13847;SDS011;6994;49.752;6.094;2023-05-13T12:22:27;2.53;;;1.58;;
13847;SDS011;6994;49.752;6.094;2023-05-13T12:24:54;1.87;;;1.75;;
13847;SDS011;6994;49.752;6.094;2023-05-13T12:27:21;2.08;;;1.98;;
13847;SDS011;6994;49.752;6.094;2023-05-13T12:29:48;3.00;;;1.77;;
13847;SDS011;6994;49.752;6.094;2023-05-13T12:32:15;2.03;;;1.73;;
13847;SDS011;6994;49.752;6.094;2023-05-13T12:34:43;1.60;;;1.50;;
13847;SDS011;6994;49.752;6.094;2023-05-13T12:37:10;1.77;;;1.65;;
13847;SDS011;6994;49.752;6.094;2023-05-13T12:39:37;2.08;;;1.73;;
13847;SDS011;6994;49.752;6.094;2023-05-13T12:42:05;1.77;;;1.62;;
13847;SDS011;6994;49.752;6.094;2023-05-13T12:44:33;1.83;;;1.73;;
13847;SDS011;6994;49.752;6.094;2023-05-13T12:47:01;2.08;;;1.58;;
13847;SDS011;6994;49.752;6.094;2023-05-13T12:49:29;4.15;;;1.83;;
13847;SDS011;6994;49.752;6.094;2023-05-13T12:51:57;3.35;;;1.77;;
13847;SDS011;6994;49.752;6.094;2023-05-13T12:54:24;3.00;;;1.50;;
13847;SDS011;6994;49.752;6.094;2023-05-13T12:56:51;1.95;;;1.80;;
13847;SDS011;6994;49.752;6.094;2023-05-13T12:59:18;2.00;;;1.80;;
13847;SDS011;6994;49.752;6.094;2023-05-13T13:01:46;2.22;;;2.00;;
13847;SDS011;6994;49.752;6.094;2023-05-13T13:04:13;3.10;;;1.92;;
13847;SDS011;6994;49.752;6.094;2023-05-13T13:06:40;4.85;;;2.25;;
13847;SDS011;6994;49.752;6.094;2023-05-13T13:09:07;4.03;;;2.28;;
13847;SDS011;6994;49.752;6.094;2023-05-13T13:11:35;2.78;;;1.67;;
13847;SDS011;6994;49.752;6.094;2023-05-13T13:14:02;2.33;;;2.03;;
13847;SDS011;6994;49.752;6.094;2023-05-13T13:16:30;3.65;;;2.40;;
13847;SDS011;6994;49.752;6.094;2023-05-13T13:18:58;3.35;;;2.00;;
13847;SDS011;6994;49.752;6.094;2023-05-13T13:21:25;2.30;;;1.73;;
13847;SDS011;6994;49.752;6.094;2023-05-13T13:23:52;2.62;;;1.98;;
13847;SDS011;6994;49.752;6.094;2023-05-13T13:26:20;1.62;;;1.50;;
13847;SDS011;6994;49.752;6.094;2023-05-13T13:28:46;2.60;;;2.10;;
13847;SDS011;6994;49.752;6.094;2023-05-13T13:31:14;1.92;;;1.83;;
13847;SDS011;6994;49.752;6.094;2023-05-13T13:33:41;1.90;;;1.80;;
13847;SDS011;6994;49.752;6.094;2023-05-13T13:36:08;2.20;;;1.80;;
13847;SDS011;6994;49.752;6.094;2023-05-13T13:38:35;1.48;;;1.37;;
13847;SDS011;6994;49.752;6.094;2023-05-13T13:41:03;3.62;;;1.92;;
13847;SDS011;6994;49.752;6.094;2023-05-13T13:43:30;2.70;;;1.65;;
13847;SDS011;6994;49.752;6.094;2023-05-13T13:45:57;3.37;;;1.80;;
13847;SDS011;6994;49.752;6.094;2023-05-13T13:48:24;3.42;;;1.77;;
13847;SDS011;6994;49.752;6.094;2023-05-13T13:50:51;1.80;;;1.48;;
13847;SDS011;6994;49.752;6.094;2023-05-13T13:53:19;2.20;;;1.55;;
13847;SDS011;6994;49.752;6.094;2023-05-13T13:55:46;1.87;;;1.70;;
13847;SDS011;6994;49.752;6.094;2023-05-13T13:58:13;1.55;;;1.45;;
13847;SDS011;6994;49.752;6.094;2023-05-13T14:00:40;2.70;;;1.62;;
13847;SDS011;6994;49.752;6.094;2023-05-13T14:03:07;4.43;;;4.03;;
13847;SDS011;6994;49.752;6.094;2023-05-13T14:05:35;3.00;;;1.80;;
13847;SDS011;6994;49.752;6.094;2023-05-13T14:08:03;4.12;;;1.65;;
13847;SDS011;6994;49.752;6.094;2023-05-13T14:10:30;6.22;;;1.90;;
13847;SDS011;6994;49.752;6.094;2023-05-13T14:12:57;3.35;;;1.67;;
13847;SDS011;6994;49.752;6.094;2023-05-13T14:15:24;4.07;;;2.47;;
13847;SDS011;6994;49.752;6.094;2023-05-13T14:17:52;7.32;;;3.45;;
13847;SDS011;6994;49.752;6.094;2023-05-13T14:20:20;3.62;;;1.95;;
13847;SDS011;6994;49.752;6.094;2023-05-13T14:22:48;5.15;;;2.20;;
13847;SDS011;6994;49.752;6.094;2023-05-13T14:25:16;2.22;;;1.33;;
13847;SDS011;6994;49.752;6.094;2023-05-13T14:27:43;3.15;;;2.20;;
13847;SDS011;6994;49.752;6.094;2023-05-13T14:30:10;2.15;;;1.75;;
13847;SDS011;6994;49.752;6.094;2023-05-13T14:32:39;3.92;;;2.25;;
13847;SDS011;6994;49.752;6.094;2023-05-13T14:35:05;3.72;;;2.75;;
13847;SDS011;6994;49.752;6.094;2023-05-13T14:37:32;3.20;;;2.90;;
13847;SDS011;6994;49.752;6.094;2023-05-13T14:39:59;2.97;;;2.72;;
13847;SDS011;6994;49.752;6.094;2023-05-13T14:42:27;2.87;;;2.60;;
13847;SDS011;6994;49.752;6.094;2023-05-13T14:44:55;3.00;;;2.70;;
13847;SDS011;6994;49.752;6.094;2023-05-13T14:47:22;4.03;;;2.62;;
13847;SDS011;6994;49.752;6.094;2023-05-13T14:49:49;2.95;;;2.75;;
13847;SDS011;6994;49.752;6.094;2023-05-13T14:52:16;5.72;;;2.70;;
13847;SDS011;6994;49.752;6.094;2023-05-13T14:54:43;3.08;;;2.78;;
13847;SDS011;6994;49.752;6.094;2023-05-13T14:57:11;4.28;;;2.40;;
13847;SDS011;6994;49.752;6.094;2023-05-13T14:59:38;4.37;;;2.97;;
13847;SDS011;6994;49.752;6.094;2023-05-13T15:02:05;5.50;;;3.00;;
13847;SDS011;6994;49.752;6.094;2023-05-13T15:04:32;5.00;;;2.72;;
13847;SDS011;6994;49.752;6.094;2023-05-13T15:07:00;3.03;;;2.73;;
13847;SDS011;6994;49.752;6.094;2023-05-13T15:09:27;3.47;;;2.58;;